Time;durP1;ratioP1;P1;durP2;ratioP2;P2;SDS_P1;SDS_P2;PMS_P1;PMS_P2;Temp;Humidity;BMP_temperature;BMP_pressure;BME280_temperature;BME280_humidity;BME280_pressure;Samples;Min_cycle;Max_cycle;Signal;HPM_P1;HPM_P2
2022/02/04 00:21:26;;;;;;;23.85;14.75;;;6.40;99.90;;;;;;5120878;28;20184;-79
2022/02/04 00:23:53;;;;;;;23.40;15.32;;;6.40;99.90;;;;;;5118123;28;20185;-80
2022/02/04 00:26:24;;;;;;;34.22;17.38;;;6.40;99.90;;;;;;5123991;28;20201;-80
2022/02/04 00:29:00;;;;;;;27.77;16.27;;;6.40;99.90;;;;;;5121205;28;20304;-79
2022/02/04 00:31:33;;;;;;;23.73;15.10;;;6.40;99.90;;;;;;5116233;28;20185;-79
2022/02/04 00:34:04;;;;;;;26.58;16.40;;;6.40;99.90;;;;;;5117357;28;20205;-79
2022/02/04 00:36:33;;;;;;;28.42;17.95;;;6.30;99.90;;;;;;5118419;28;20177;-79
2022/02/04 00:39:05;;;;;;;28.25;15.85;;;6.40;99.90;;;;;;5127157;27;20208;-78
2022/02/04 00:41:35;;;;;;;29.63;17.50;;;6.40;99.90;;;;;;5135419;27;20181;-79
2022/02/04 00:44:04;;;;;;;31.33;17.30;;;6.40;99.90;;;;;;5135649;27;20166;-78
2022/02/04 00:46:39;;;;;;;32.25;18.10;;;6.40;99.90;;;;;;5135726;27;20185;-80
2022/02/04 00:49:10;;;;;;;30.65;18.52;;;6.40;99.90;;;;;;5135310;27;20243;-78
2022/02/04 00:51:45;;;;;;;28.02;16.27;;;6.50;99.90;;;;;;5132562;28;20192;-79
2022/02/04 00:54:20;;;;;;;30.35;18.20;;;6.40;99.90;;;;;;5114520;28;20627;-79
2022/02/04 00:57:04;;;;;;;30.05;15.43;;;6.40;99.90;;;;;;5113893;28;20206;-80
2022/02/04 01:13:26;;;;;;;32.67;19.45;;;6.30;99.90;;;;;;5100994;28;20181;-79
2022/02/04 01:26:51;;;;;;;30.63;17.50;;;6.30;99.90;;;;;;5102892;28;20185;-79
2022/02/04 01:29:18;;;;;;;27.02;15.52;;;6.30;99.90;;;;;;5102640;28;20228;-79
2022/02/04 01:31:47;;;;;;;33.65;19.27;;;6.30;99.90;;;;;;5100342;28;20639;-80
2022/02/04 01:34:14;;;;;;;35.55;18.35;;;6.30;99.90;;;;;;5100347;28;20311;-81
2022/02/04 01:36:41;;;;;;;30.52;16.00;;;6.30;99.90;;;;;;5101674;28;20672;-79
2022/02/04 01:39:07;;;;;;;29.35;16.63;;;6.30;99.90;;;;;;5101096;28;20222;-79
2022/02/04 01:41:34;;;;;;;31.38;18.92;;;6.40;99.90;;;;;;5100694;28;20592;-79
2022/02/04 01:44:00;;;;;;;28.70;18.58;;;6.30;99.90;;;;;;5102171;28;20730;-79
2022/02/04 01:46:27;;;;;;;28.23;16.02;;;6.30;99.90;;;;;;5102182;28;20202;-80
2022/02/04 01:48:55;;;;;;;31.83;16.75;;;6.40;99.90;;;;;;5100135;28;20218;-79
2022/02/04 01:51:22;;;;;;;26.92;16.52;;;6.40;99.90;;;;;;5100215;28;20623;-79
2022/02/04 01:53:48;;;;;;;27.90;16.98;;;6.40;99.90;;;;;;5099909;28;20206;-79
2022/02/04 01:56:15;;;;;;;25.85;16.17;;;6.30;99.90;;;;;;5100897;28;20197;-79
2022/02/04 01:58:42;;;;;;;32.63;17.30;;;6.10;99.90;;;;;;5101540;28;20225;-79
2022/02/04 02:01:09;;;;;;;28.40;16.50;;;6.30;99.90;;;;;;5100287;28;20212;-80
2022/02/04 02:03:35;;;;;;;34.60;18.85;;;6.30;99.90;;;;;;5102315;28;20714;-80
2022/02/04 02:06:08;;;;;;;26.48;15.35;;;6.30;99.90;;;;;;5103383;28;20582;-81
2022/02/04 02:08:35;;;;;;;27.02;15.73;;;6.30;99.90;;;;;;5101792;28;20233;-80
2022/02/04 02:11:01;;;;;;;30.15;16.85;;;6.30;99.90;;;;;;5102194;28;20206;-80
2022/02/04 02:13:36;;;;;;;30.23;16.05;;;6.30;99.90;;;;;;5101966;28;20210;-80
2022/02/04 02:16:16;;;;;;;37.22;18.33;;;6.30;99.90;;;;;;5102237;28;20248;-80
2022/02/04 02:33:17;;;;;;;24.60;15.00;;;6.20;99.90;;;;;;5052939;28;20251;-79
2022/02/04 02:36:05;;;;;;;34.42;18.92;;;6.10;99.90;;;;;;5108612;28;20212;-80
2022/02/04 02:47:25;;;;;;;32.42;18.65;;;6.10;99.90;;;;;;5035881;28;20199;-80
2022/02/04 02:50:13;;;;;;;32.33;16.88;;;6.00;99.90;;;;;;5094478;28;20247;-80
2022/02/04 02:53:02;;;;;;;31.48;17.88;;;6.00;99.90;;;;;;5098263;28;20196;-80
2022/02/04 02:55:38;;;;;;;35.10;19.48;;;6.00;99.90;;;;;;5098921;28;20206;-80
2022/02/04 02:58:09;;;;;;;30.95;16.75;;;6.00;99.90;;;;;;5113588;28;20225;-80
2022/02/04 03:03:30;;;;;;;33.88;17.45;;;6.00;99.90;;;;;;5087418;28;20217;-79
2022/02/04 03:05:57;;;;;;;39.17;19.40;;;6.10;99.90;;;;;;5109713;28;20222;-79
2022/02/04 03:08:24;;;;;;;33.90;17.55;;;6.10;99.90;;;;;;5110746;28;20233;-79
2022/02/04 03:10:54;;;;;;;29.88;17.60;;;6.00;99.90;;;;;;5110167;28;20227;-79
2022/02/04 03:13:21;;;;;;;33.60;16.95;;;6.00;99.90;;;;;;5104691;28;20193;-80
2022/02/04 03:15:55;;;;;;;30.70;17.63;;;6.00;99.90;;;;;;5100142;28;20220;-80
2022/02/04 03:18:24;;;;;;;29.25;16.92;;;6.10;99.90;;;;;;5100461;28;20225;-79
2022/02/04 03:20:53;;;;;;;32.25;17.05;;;6.10;99.90;;;;;;5114660;28;20197;-80
2022/02/04 03:23:21;;;;;;;28.77;16.92;;;6.10;99.90;;;;;;5117228;28;20192;-80
2022/02/04 03:25:52;;;;;;;24.95;15.57;;;6.10;99.90;;;;;;5116257;28;20247;-80
2022/02/04 03:28:24;;;;;;;24.60;15.75;;;6.10;99.90;;;;;;5114789;28;20271;-79
2022/02/04 03:30:53;;;;;;;33.45;16.58;;;6.00;99.90;;;;;;5102138;28;20186;-80
2022/02/04 03:33:23;;;;;;;32.47;18.95;;;6.00;99.90;;;;;;5097549;28;20201;-79
2022/02/04 03:35:50;;;;;;;28.55;18.25;;;6.00;99.90;;;;;;5101749;28;20197;-79
2022/02/04 03:38:17;;;;;;;29.48;17.75;;;6.00;99.90;;;;;;5106024;28;20249;-80
2022/02/04 03:40:44;;;;;;;26.58;16.10;;;6.00;99.90;;;;;;5110543;28;20257;-79
2022/02/04 03:43:10;;;;;;;34.75;16.35;;;6.00;99.90;;;;;;5111123;28;20221;-79
2022/02/04 03:45:38;;;;;;;27.38;16.73;;;6.00;99.90;;;;;;5111416;28;20227;-79
2022/02/04 03:48:06;;;;;;;29.85;17.83;;;6.00;99.90;;;;;;5112045;28;20222;-79
2022/02/04 03:50:32;;;;;;;26.15;15.48;;;5.90;99.90;;;;;;5112922;28;20185;-78
2022/02/04 03:53:00;;;;;;;28.73;17.45;;;6.00;99.90;;;;;;5113099;28;20204;-79
2022/02/04 03:55:27;;;;;;;31.27;16.00;;;6.00;99.90;;;;;;5113037;28;20265;-79
2022/02/04 03:57:53;;;;;;;31.70;16.70;;;6.00;99.90;;;;;;5112933;28;20232;-79
2022/02/04 04:00:20;;;;;;;34.30;17.67;;;6.00;99.90;;;;;;5112606;28;20198;-78
2022/02/04 04:02:48;;;;;;;26.70;16.27;;;6.00;99.90;;;;;;5116744;28;20201;-78
2022/02/04 04:05:15;;;;;;;28.20;16.58;;;6.00;99.90;;;;;;5118842;28;20220;-78
2022/02/04 04:07:45;;;;;;;26.77;16.10;;;5.90;99.90;;;;;;5118780;28;20213;-77
2022/02/04 04:10:17;;;;;;;28.08;16.27;;;6.00;99.90;;;;;;5119114;28;20190;-77
2022/02/04 04:12:43;;;;;;;28.75;16.60;;;5.90;99.90;;;;;;5118938;28;20213;-78
2022/02/04 04:15:10;;;;;;;26.58;16.00;;;6.00;99.90;;;;;;5114879;28;20202;-78
2022/02/04 04:17:40;;;;;;;31.30;17.83;;;5.90;99.90;;;;;;5108418;28;20274;-79
2022/02/04 04:20:11;;;;;;;31.02;16.00;;;6.00;99.90;;;;;;5103130;28;20190;-78
2022/02/04 04:22:37;;;;;;;32.88;18.02;;;5.90;99.90;;;;;;5099658;28;20210;-78
2022/02/04 04:25:05;;;;;;;31.80;17.65;;;5.90;99.90;;;;;;5096610;28;20222;-78
2022/02/04 04:27:32;;;;;;;30.67;16.40;;;5.90;99.90;;;;;;5096052;28;20245;-78
2022/02/04 04:29:58;;;;;;;33.70;18.08;;;5.90;99.90;;;;;;5095679;28;20202;-78
2022/02/04 04:32:25;;;;;;;29.38;16.85;;;5.90;99.90;;;;;;5095706;28;20248;-78
2022/02/04 04:34:52;;;;;;;28.75;15.82;;;6.00;99.90;;;;;;5097078;28;20231;-78
2022/02/04 04:37:21;;;;;;;34.05;16.50;;;6.10;99.90;;;;;;5095647;28;20626;-78
2022/02/04 04:39:58;;;;;;;27.63;16.60;;;6.00;99.90;;;;;;5095610;28;20231;-79
2022/02/04 04:42:38;;;;;;;27.75;18.10;;;5.90;99.90;;;;;;5099429;28;20193;-78
2022/02/04 04:45:32;;;;;;;25.73;16.05;;;6.00;99.90;;;;;;5098914;28;20296;-78
2022/02/04 05:27:20;;;;;;;28.65;16.45;;;5.90;99.90;;;;;;5065582;28;20229;-81
2022/02/04 05:29:38;;;;;;;26.15;15.10;;;5.90;99.90;;;;;;5099851;28;20197;-80
2022/02/04 05:32:06;;;;;;;28.67;17.00;;;5.90;99.90;;;;;;5099522;28;20244;-79
2022/02/04 05:34:32;;;;;;;27.23;15.48;;;5.90;99.90;;;;;;5099409;28;20201;-78
2022/02/04 05:37:03;;;;;;;30.70;16.45;;;6.00;99.90;;;;;;5100567;28;20201;-78
2022/02/04 05:39:36;;;;;;;28.77;16.33;;;6.00;99.90;;;;;;5098936;28;20276;-79
2022/02/04 05:42:07;;;;;;;30.63;16.00;;;5.90;99.90;;;;;;5098790;28;20625;-79
2022/02/04 05:44:37;;;;;;;25.40;16.25;;;5.90;99.90;;;;;;5098509;28;20206;-79
2022/02/04 05:47:12;;;;;;;31.20;17.02;;;5.90;99.90;;;;;;5098494;28;20212;-79
2022/02/04 05:49:45;;;;;;;27.73;16.30;;;5.80;99.90;;;;;;5098772;28;20242;-79
2022/02/04 05:52:17;;;;;;;31.13;16.20;;;5.80;99.90;;;;;;5097854;28;20235;-79
2022/02/04 05:54:58;;;;;;;31.80;16.98;;;5.80;99.90;;;;;;5101307;28;20181;-79
2022/02/04 05:57:40;;;;;;;29.05;16.70;;;5.90;99.90;;;;;;5116830;28;20233;-78
2022/02/04 06:00:21;;;;;;;27.25;17.92;;;5.80;99.90;;;;;;5117395;28;20194;-78
2022/02/04 06:02:58;;;;;;;31.27;16.35;;;5.80;99.90;;;;;;5113308;28;20219;-79
2022/02/04 06:05:44;;;;;;;30.48;16.42;;;5.80;99.90;;;;;;5103371;28;20205;-80
2022/02/04 06:08:32;;;;;;;29.15;16.65;;;5.80;99.90;;;;;;5118095;22;20225;-80
2022/02/04 06:11:14;;;;;;;36.53;17.20;;;5.80;99.90;;;;;;5110425;28;20194;-81
2022/02/04 06:14:04;;;;;;;26.58;15.25;;;5.80;99.90;;;;;;5109643;28;20189;-80
2022/02/04 06:22:19;;;;;;;31.15;15.68;;;6.00;99.90;;;;;;5110118;28;20231;-80
2022/02/04 06:24:46;;;;;;;26.45;15.60;;;5.80;99.90;;;;;;5107905;28;20190;-81
2022/02/04 06:27:13;;;;;;;30.42;17.85;;;5.80;99.90;;;;;;5104196;28;20202;-80
2022/02/04 06:29:41;;;;;;;29.13;18.33;;;5.80;99.90;;;;;;5107744;28;20232;-81
2022/02/04 06:32:08;;;;;;;29.38;18.20;;;5.90;99.90;;;;;;5110122;28;20563;-81
2022/02/04 06:34:35;;;;;;;26.38;15.68;;;5.80;99.90;;;;;;5111387;28;20431;-82
2022/02/04 06:37:02;;;;;;;30.35;18.67;;;5.80;99.90;;;;;;5108510;28;20201;-80
2022/02/04 06:39:28;;;;;;;32.20;16.00;;;5.80;99.90;;;;;;5109280;28;20235;-80
2022/02/04 06:41:55;;;;;;;29.23;16.85;;;5.80;99.90;;;;;;5109818;28;20202;-80
2022/02/04 06:44:21;;;;;;;28.92;15.70;;;5.80;99.90;;;;;;5108104;28;20210;-80
2022/02/04 06:46:49;;;;;;;28.30;16.50;;;5.80;99.90;;;;;;5106422;28;20715;-80
2022/02/04 06:49:16;;;;;;;25.08;14.48;;;5.70;99.90;;;;;;5107882;28;20253;-81
2022/02/04 06:51:43;;;;;;;28.77;17.00;;;5.80;99.90;;;;;;5108503;28;20198;-80
2022/02/04 06:54:09;;;;;;;27.13;15.40;;;5.80;99.90;;;;;;5113094;28;20206;-80
2022/02/04 06:56:36;;;;;;;26.27;16.00;;;5.80;99.90;;;;;;5111206;28;20205;-81
2022/02/04 06:59:05;;;;;;;30.63;17.73;;;5.80;99.90;;;;;;5108999;28;20226;-80
2022/02/04 07:01:33;;;;;;;27.48;15.57;;;5.80;99.90;;;;;;5108721;28;20201;-81
2022/02/04 07:04:03;;;;;;;27.20;17.50;;;5.80;99.90;;;;;;5108942;28;20206;-82
2022/02/04 07:06:31;;;;;;;39.47;19.55;;;5.80;99.90;;;;;;5107844;28;20202;-81
2022/02/04 07:09:12;;;;;;;24.30;13.68;;;5.80;99.90;;;;;;5108451;28;20603;-79
2022/02/04 07:12:02;;;;;;;27.42;15.68;;;5.80;99.90;;;;;;5105613;28;20243;-80
2022/02/04 07:14:38;;;;;;;31.88;16.70;;;5.90;99.90;;;;;;5107521;28;20201;-81
2022/02/04 07:17:19;;;;;;;28.60;16.10;;;5.90;99.90;;;;;;5108282;28;20182;-83
2022/02/04 07:19:47;;;;;;;38.97;19.73;;;5.80;99.90;;;;;;5109304;28;20246;-81
2022/02/04 07:22:15;;;;;;;34.92;18.75;;;6.10;99.90;;;;;;5107439;28;20213;-80
2022/02/04 07:24:42;;;;;;;31.23;17.10;;;5.90;99.90;;;;;;5106460;28;20208;-80
2022/02/04 07:27:08;;;;;;;26.25;15.48;;;5.90;99.90;;;;;;5107877;28;20224;-80
2022/02/04 07:29:36;;;;;;;26.95;14.75;;;5.90;99.90;;;;;;5108873;28;20243;-82
2022/02/04 07:32:09;;;;;;;28.27;15.85;;;5.90;99.90;;;;;;5112054;28;20213;-81
2022/02/04 07:34:43;;;;;;;27.52;16.60;;;5.90;99.90;;;;;;5108834;28;20209;-80
2022/02/04 07:42:55;;;;;;;30.48;16.48;;;5.90;99.90;;;;;;5056836;28;20254;-82
2022/02/04 07:45:22;;;;;;;27.52;15.98;;;6.00;99.90;;;;;;5092011;28;20263;-82
2022/02/04 07:47:50;;;;;;;23.63;16.10;;;6.20;99.90;;;;;;5109827;28;20259;-81
2022/02/04 07:50:20;;;;;;;28.80;17.20;;;6.00;99.90;;;;;;5107630;28;20202;-80
2022/02/04 07:52:48;;;;;;;25.52;15.23;;;6.00;99.90;;;;;;5107456;28;20269;-80
2022/02/04 07:55:15;;;;;;;30.92;17.40;;;6.10;99.90;;;;;;5102889;28;20209;-80
2022/02/04 07:57:42;;;;;;;21.45;14.57;;;6.20;99.90;;;;;;5104588;28;20209;-81
2022/02/04 08:00:13;;;;;;;20.45;14.07;;;6.20;99.90;;;;;;5105675;28;20201;-83
2022/02/04 08:02:40;;;;;;;22.50;13.82;;;6.10;99.90;;;;;;5108868;28;20249;-81
2022/02/04 08:05:09;;;;;;;20.40;12.05;;;6.10;99.90;;;;;;5108825;28;20197;-81
2022/02/04 08:07:44;;;;;;;20.33;12.73;;;6.10;99.90;;;;;;5111503;28;20204;-81
2022/02/04 08:10:23;;;;;;;31.23;17.63;;;6.10;99.90;;;;;;5113789;28;20185;-79
2022/02/04 08:15:53;;;;;;;20.10;11.48;;;6.30;99.90;;;;;;5100955;28;20204;-79
2022/02/04 08:18:33;;;;;;;18.23;11.77;;;6.30;99.90;;;;;;5114383;28;20221;-81
2022/02/04 08:21:34;;;;;;;15.30;11.20;;;6.30;99.90;;;;;;5109097;28;20217;-81
2022/02/04 08:24:25;;;;;;;15.30;9.38;;;6.30;99.90;;;;;;5116228;28;20232;-81
2022/02/04 08:27:21;;;;;;;18.23;10.95;;;6.30;99.90;;;;;;5111563;28;20210;-79
2022/02/04 08:30:08;;;;;;;16.55;11.52;;;6.40;99.90;;;;;;5109039;28;20236;-79
2022/02/04 08:32:49;;;;;;;17.27;10.23;;;6.40;99.90;;;;;;5105260;28;20186;-79
2022/02/04 08:35:45;;;;;;;13.23;10.48;;;6.40;99.90;;;;;;5106460;28;20211;-78
2022/02/04 08:38:28;;;;;;;14.73;10.25;;;6.50;99.90;;;;;;5107414;28;20747;-80
2022/02/04 08:46:53;;;;;;;14.95;9.00;;;6.60;99.90;;;;;;5109106;28;20220;-79
2022/02/04 08:49:45;;;;;;;14.30;9.77;;;6.50;99.90;;;;;;5105849;28;20255;-80
2022/02/04 08:52:31;;;;;;;14.50;9.40;;;6.50;99.90;;;;;;5115507;28;20182;-78
2022/02/04 08:55:03;;;;;;;14.85;9.68;;;6.50;99.90;;;;;;5114866;28;20235;-80
2022/02/04 08:57:39;;;;;;;11.75;8.75;;;6.50;99.90;;;;;;5108130;28;20178;-80
2022/02/04 09:00:18;;;;;;;16.55;10.75;;;6.50;99.90;;;;;;5107793;28;20189;-79
2022/02/04 09:02:53;;;;;;;14.82;9.40;;;6.50;99.90;;;;;;5106755;28;20182;-79
2022/02/04 09:05:25;;;;;;;10.68;9.00;;;6.50;99.90;;;;;;5108083;28;20217;-80
2022/02/04 09:07:56;;;;;;;15.80;9.70;;;6.70;99.90;;;;;;5109829;28;20194;-78
2022/02/04 09:10:24;;;;;;;11.75;8.32;;;6.50;99.90;;;;;;5105830;28;20201;-80
2022/02/04 09:23:49;;;;;;;9.50;7.47;;;6.60;99.90;;;;;;5099201;28;20307;-80
2022/02/04 09:26:16;;;;;;;10.93;8.10;;;6.60;99.90;;;;;;5099502;28;20221;-80
2022/02/04 09:28:42;;;;;;;10.65;8.20;;;6.60;99.90;;;;;;5100077;28;20749;-79
2022/02/04 09:31:10;;;;;;;10.80;8.20;;;6.50;99.90;;;;;;5101191;28;20198;-80
2022/02/04 09:33:37;;;;;;;12.68;8.88;;;6.50;99.90;;;;;;5101574;28;20202;-79
2022/02/04 09:36:04;;;;;;;10.88;7.63;;;6.50;99.90;;;;;;5101516;28;20256;-78
2022/02/04 09:38:30;;;;;;;10.68;8.05;;;6.60;99.90;;;;;;5103164;28;20233;-79
2022/02/04 09:40:57;;;;;;;12.43;7.78;;;6.60;99.90;;;;;;5101434;28;20198;-79
2022/02/04 09:43:24;;;;;;;14.30;8.88;;;6.60;99.90;;;;;;5101011;28;20216;-79
2022/02/04 09:45:51;;;;;;;12.85;8.45;;;6.60;99.90;;;;;;5100799;28;20619;-80
2022/02/04 09:48:19;;;;;;;13.25;8.50;;;6.60;99.90;;;;;;5100321;28;20218;-80
2022/02/04 09:50:50;;;;;;;8.93;6.82;;;6.70;99.90;;;;;;5100107;28;20209;-79
2022/02/04 10:15:34;;;;;;;13.73;8.55;;;6.60;99.90;;;;;;5112935;28;20213;-80
2022/02/04 10:18:04;;;;;;;12.52;8.57;;;6.70;99.90;;;;;;5106335;28;20222;-79
2022/02/04 10:20:32;;;;;;;13.10;8.73;;;6.70;99.90;;;;;;5105374;28;20213;-78
2022/02/04 10:23:00;;;;;;;11.15;8.15;;;6.70;99.90;;;;;;5110810;28;20226;-78
2022/02/04 10:25:31;;;;;;;13.35;9.57;;;6.70;99.90;;;;;;5111415;28;20639;-79
2022/02/04 10:27:58;;;;;;;13.18;9.50;;;6.70;99.90;;;;;;5111366;28;20213;-78
2022/02/04 10:30:25;;;;;;;14.20;9.90;;;6.70;99.90;;;;;;5113131;28;20243;-79
2022/02/04 10:32:54;;;;;;;14.65;8.88;;;6.70;99.90;;;;;;5111666;28;20255;-79
2022/02/04 10:35:26;;;;;;;14.90;8.88;;;6.80;99.90;;;;;;5109049;28;20233;-79
2022/02/04 10:38:06;;;;;;;14.90;10.40;;;6.70;99.90;;;;;;5101238;28;20768;-79
2022/02/04 10:40:44;;;;;;;13.18;9.07;;;6.80;99.90;;;;;;5100315;28;20213;-80
2022/02/04 10:43:38;;;;;;;12.75;9.27;;;6.80;99.90;;;;;;5100139;28;20186;-80
2022/02/04 10:46:16;;;;;;;14.20;10.27;;;6.80;99.90;;;;;;5098514;28;20182;-80
2022/02/04 10:49:00;;;;;;;14.48;9.55;;;6.80;99.90;;;;;;5098882;28;20225;-79
2022/02/04 11:02:55;;;;;;;15.73;9.65;;;7.00;99.90;;;;;;5094173;28;20600;-80
2022/02/04 11:05:30;;;;;;;14.20;8.43;;;7.00;99.90;;;;;;5098374;28;20281;-80
2022/02/04 11:30:55;;;;;;;14.40;9.43;;;7.20;99.90;;;;;;5055312;28;20413;-79
2022/02/04 11:31:04;;;;;;;12.65;9.48;;;7.40;99.90;;;;;;5098831;28;20192;-78
2022/02/04 11:33:53;;;;;;;11.77;8.27;;;7.60;99.90;;;;;;5100868;28;20215;-78
2022/02/04 11:36:45;;;;;;;23.95;9.68;;;7.60;99.90;;;;;;5100644;28;20189;-80
2022/02/04 11:49:28;;;;;;;15.52;9.82;;;7.90;99.90;;;;;;5104786;28;20240;-77
2022/02/04 11:52:08;;;;;;;10.50;7.47;;;8.00;99.90;;;;;;5106010;28;20205;-78
2022/02/04 11:54:43;;;;;;;9.40;7.82;;;7.90;99.90;;;;;;5105978;28;20565;-78
2022/02/04 11:57:21;;;;;;;10.55;7.03;;;7.90;99.90;;;;;;5102309;28;20205;-79
2022/02/04 11:59:53;;;;;;;13.77;8.50;;;7.80;99.90;;;;;;5102088;28;20253;-79
2022/02/04 12:02:38;;;;;;;13.15;8.52;;;7.80;99.90;;;;;;5101576;28;20189;-78
2022/02/04 12:05:28;;;;;;;9.68;7.82;;;7.90;99.90;;;;;;5112182;28;20291;-78
2022/02/04 12:10:26;;;;;;;13.25;8.57;;;7.90;99.90;;;;;;5136010;22;20237;-83
2022/02/04 12:13:09;;;;;;;12.02;9.00;;;7.90;99.90;;;;;;5112580;28;20289;-84
2022/02/04 12:15:38;;;;;;;12.32;8.20;;;8.00;99.90;;;;;;5108015;28;20186;-83
2022/02/04 12:18:07;;;;;;;12.40;7.05;;;8.00;99.90;;;;;;5105318;28;20201;-83
2022/02/04 12:20:58;;;;;;;10.63;7.22;;;7.80;99.90;;;;;;5104599;28;20202;-84
2022/02/04 12:23:49;;;;;;;9.70;7.68;;;8.00;99.90;;;;;;5105114;28;20259;-84
2022/02/04 12:26:19;;;;;;;11.00;7.68;;;8.20;99.90;;;;;;5106816;28;20190;-84
2022/02/04 12:28:51;;;;;;;10.15;6.80;;;8.30;99.90;;;;;;5105736;28;20285;-82
2022/02/04 12:31:24;;;;;;;9.00;6.55;;;8.20;99.90;;;;;;5113746;28;20281;-82
2022/02/04 12:33:55;;;;;;;9.23;6.10;;;8.20;99.90;;;;;;5112350;28;20225;-83
2022/02/04 12:36:24;;;;;;;9.32;7.20;;;8.20;99.90;;;;;;5115632;28;20202;-82
2022/02/04 12:38:53;;;;;;;7.18;5.90;;;8.70;99.90;;;;;;5110909;28;20704;-84
2022/02/04 12:41:24;;;;;;;6.68;5.40;;;8.20;99.90;;;;;;5107129;28;20205;-82
2022/02/04 12:43:52;;;;;;;4.82;4.30;;;8.30;99.90;;;;;;5107535;28;20202;-83
2022/02/04 12:46:26;;;;;;;6.70;5.20;;;8.20;99.90;;;;;;5107923;28;20588;-86
2022/02/04 12:49:09;;;;;;;6.35;5.47;;;8.20;99.90;;;;;;5107444;28;20233;-88
2022/02/04 12:51:54;;;;;;;6.45;4.50;;;8.30;99.90;;;;;;5106323;28;20197;-84
2022/02/04 12:55:13;;;;;;;4.63;4.22;;;8.40;99.90;;;;;;5107286;28;20205;-88
2022/02/04 13:01:58;;;;;;;5.32;4.82;;;8.20;99.90;;;;;;5158591;22;20273;-86
2022/02/04 13:13:00;;;;;;;5.43;4.80;;;8.20;99.90;;;;;;5085610;28;20185;-83
2022/02/04 13:15:28;;;;;;;8.93;5.07;;;8.20;99.90;;;;;;5100471;28;20235;-81
2022/02/04 13:17:57;;;;;;;8.30;6.30;;;8.30;99.90;;;;;;5118147;28;20190;-82
2022/02/04 13:20:24;;;;;;;6.13;5.10;;;8.40;99.90;;;;;;5114780;28;20509;-85
2022/02/04 13:22:54;;;;;;;8.43;5.85;;;8.40;99.90;;;;;;5129262;22;20260;-79
2022/02/04 13:25:24;;;;;;;5.30;4.80;;;8.30;99.90;;;;;;5095090;28;20195;-78
2022/02/04 13:28:08;;;;;;;6.15;5.55;;;8.40;99.90;;;;;;5092232;28;20622;-81
2022/02/04 13:30:36;;;;;;;7.90;5.90;;;8.40;99.90;;;;;;5088097;28;20697;-83
2022/02/04 13:33:14;;;;;;;6.70;6.00;;;8.50;99.90;;;;;;5081663;28;20222;-80
2022/02/04 13:35:42;;;;;;;7.18;6.13;;;8.40;99.90;;;;;;5081391;28;20455;-80
2022/02/04 13:38:21;;;;;;;7.80;6.30;;;8.30;99.90;;;;;;5083034;28;20221;-80
2022/02/04 13:43:41;;;;;;;6.80;6.10;;;8.40;99.90;;;;;;5083596;28;20218;-83
2022/02/04 13:46:17;;;;;;;11.45;6.55;;;8.40;99.90;;;;;;5084683;28;20399;-83
2022/02/04 13:49:03;;;;;;;9.02;6.40;;;8.40;99.90;;;;;;5086580;28;20206;-82
2022/02/04 13:51:48;;;;;;;6.57;5.07;;;8.40;99.90;;;;;;5091039;28;20190;-82
2022/02/04 13:54:26;;;;;;;5.45;4.70;;;8.50;99.90;;;;;;5094472;28;20240;-83
2022/02/04 13:57:10;;;;;;;10.85;6.35;;;8.40;99.90;;;;;;5092299;28;20579;-81
2022/02/04 13:59:44;;;;;;;14.07;4.93;;;8.30;99.90;;;;;;5093476;28;20357;-82
2022/02/04 14:02:15;;;;;;;7.63;5.53;;;8.50;99.90;;;;;;5087950;28;20191;-80
2022/02/04 14:04:54;;;;;;;6.28;5.10;;;8.50;99.90;;;;;;5085595;28;20192;-83
2022/02/04 14:07:23;;;;;;;8.43;4.45;;;8.50;99.90;;;;;;5085060;28;20206;-80
2022/02/04 14:09:58;;;;;;;5.63;5.03;;;8.40;99.90;;;;;;5087051;28;20559;-81
2022/02/04 14:12:25;;;;;;;4.45;4.00;;;8.40;99.90;;;;;;5085095;28;20261;-80
2022/02/04 14:14:58;;;;;;;4.73;4.30;;;8.40;99.90;;;;;;5085809;28;20206;-82
2022/02/04 14:17:29;;;;;;;6.03;4.70;;;8.40;99.90;;;;;;5086727;28;20478;-82
2022/02/04 14:20:02;;;;;;;5.07;4.67;;;8.40;99.90;;;;;;5088331;28;20539;-82
2022/02/04 14:22:29;;;;;;;6.25;5.35;;;;;;;;;;5085558;28;20480;-83
2022/02/04 14:25:01;;;;;;;7.40;4.50;;;8.30;99.90;;;;;;5081052;28;20187;-82
2022/02/04 14:27:27;;;;;;;4.88;4.20;;;8.30;99.90;;;;;;5080439;28;20480;-81
2022/02/04 14:30:00;;;;;;;3.47;3.17;;;8.40;99.90;;;;;;5084834;28;20252;-82
2022/02/04 14:32:34;;;;;;;4.57;4.17;;;8.40;99.90;;;;;;5083431;28;20291;-80
2022/02/04 14:35:05;;;;;;;4.70;3.42;;;8.40;99.90;;;;;;5081026;28;20433;-79
2022/02/04 14:37:51;;;;;;;4.55;4.03;;;8.40;99.90;;;;;;5080411;28;20202;-81
2022/02/04 14:51:44;;;;;;;5.28;4.75;;;8.40;99.90;;;;;;5081735;28;20236;-80
2022/02/04 14:54:25;;;;;;;5.10;4.07;;;8.30;99.90;;;;;;5082286;28;20317;-80
2022/02/04 15:02:44;;;;;;;6.00;5.10;;;8.40;99.90;;;;;;5037800;28;20965;-81
2022/02/04 15:05:14;;;;;;;5.30;4.28;;;8.30;99.90;;;;;;5072873;28;20465;-81
2022/02/04 15:07:43;;;;;;;4.00;3.10;;;8.40;99.90;;;;;;5087063;28;20211;-81
2022/02/04 15:10:14;;;;;;;4.25;3.47;;;8.30;99.90;;;;;;5080953;28;20548;-81
2022/02/04 15:12:44;;;;;;;5.67;4.50;;;8.30;99.90;;;;;;5080012;28;20295;-80
2022/02/04 15:15:11;;;;;;;8.30;4.18;;;8.20;99.90;;;;;;5079227;28;20896;-79
2022/02/04 15:17:39;;;;;;;7.57;5.78;;;8.30;99.90;;;;;;5080959;28;20203;-79
2022/02/04 15:20:07;;;;;;;12.10;5.17;;;8.20;99.90;;;;;;5084670;28;20206;-80
2022/02/04 15:22:33;;;;;;;4.50;3.92;;;8.30;99.90;;;;;;5083325;28;20489;-80
2022/02/04 15:25:09;;;;;;;6.82;4.70;;;7.40;99.90;;;;;;5082604;28;20216;-81
2022/02/04 15:27:39;;;;;;;5.57;4.35;;;8.20;99.90;;;;;;5082547;28;20210;-82
2022/02/04 15:30:10;;;;;;;7.30;5.90;;;8.20;99.90;;;;;;5082264;28;20562;-80
2022/02/04 15:32:36;;;;;;;8.43;4.25;;;8.20;99.90;;;;;;5083999;28;20329;-79
2022/02/04 15:35:05;;;;;;;7.13;4.63;;;8.10;99.90;;;;;;5089233;28;20202;-79
2022/02/04 15:37:31;;;;;;;4.70;4.30;;;8.20;99.90;;;;;;5090518;28;20232;-79
2022/02/04 15:39:58;;;;;;;10.52;7.25;;;8.20;99.90;;;;;;5088758;28;20233;-80
2022/02/04 15:42:26;;;;;;;9.10;5.93;;;8.20;99.90;;;;;;5088429;28;20237;-79
2022/02/04 15:45:12;;;;;;;7.78;5.05;;;8.20;99.90;;;;;;5081872;28;20430;-79
2022/02/04 15:47:54;;;;;;;4.32;2.78;;;8.20;99.90;;;;;;5096648;28;20270;-83
2022/02/04 15:50:32;;;;;;;54.77;38.27;;;8.20;99.90;;;;;;5097282;28;20186;-83
2022/02/04 15:53:17;;;;;;;4.35;3.40;;;8.30;99.90;;;;;;5097299;28;20519;-81
2022/02/04 15:58:38;;;;;;;3.90;3.00;;;8.10;99.90;;;;;;5090143;28;20248;-85
2022/02/04 16:01:26;;;;;;;4.20;2.47;;;8.30;99.90;;;;;;5091436;28;20208;-84
2022/02/04 16:04:01;;;;;;;3.90;2.72;;;8.20;99.90;;;;;;5083897;28;20446;-84
2022/02/04 16:06:28;;;;;;;3.10;2.75;;;8.20;99.90;;;;;;5083330;28;20206;-79
2022/02/04 16:08:56;;;;;;;3.30;2.60;;;8.10;99.90;;;;;;5082691;28;20222;-82
2022/02/04 16:11:35;;;;;;;1.60;1.50;;;8.10;99.90;;;;;;5081521;28;20206;-80
2022/02/04 16:14:12;;;;;;;1.77;1.57;;;8.10;99.90;;;;;;5085648;28;20262;-81
2022/02/04 16:16:42;;;;;;;4.35;1.70;;;8.20;99.90;;;;;;5084027;28;20432;-81
2022/02/04 16:19:24;;;;;;;4.25;2.75;;;8.10;99.90;;;;;;5084000;28;20209;-80
2022/02/04 16:22:07;;;;;;;3.13;2.85;;;8.10;99.90;;;;;;5082917;28;20202;-80
2022/02/04 16:24:45;;;;;;;2.60;2.40;;;8.10;99.90;;;;;;5083380;28;20225;-79
2022/02/04 16:29:52;;;;;;;1.55;1.45;;;8.10;99.90;;;;;;5081323;28;20198;-79
2022/02/04 16:32:19;;;;;;;4.15;3.10;;;8.10;99.90;;;;;;5082592;28;20222;-81
2022/02/04 16:34:53;;;;;;;7.95;5.15;;;8.10;99.90;;;;;;5083116;28;20209;-81
2022/02/04 16:37:28;;;;;;;2.47;2.25;;;8.10;99.90;;;;;;5084970;28;20205;-83
2022/02/04 16:39:55;;;;;;;3.67;1.90;;;8.10;99.90;;;;;;5086216;28;20220;-80
2022/02/04 16:42:22;;;;;;;1.67;1.58;;;8.10;99.90;;;;;;5090621;28;20222;-79
2022/02/04 16:44:49;;;;;;;2.05;1.70;;;8.00;99.90;;;;;;5089903;28;20202;-80
2022/02/04 16:47:16;;;;;;;2.45;2.05;;;7.80;99.90;;;;;;5084568;28;20789;-80
2022/02/04 16:49:43;;;;;;;2.97;2.00;;;8.10;99.90;;;;;;5083883;28;20480;-80
2022/02/04 16:52:11;;;;;;;2.30;2.10;;;8.20;99.90;;;;;;5085138;28;20206;-80
2022/02/04 16:54:38;;;;;;;2.85;1.92;;;8.10;99.90;;;;;;5085151;28;20244;-81
2022/02/04 16:57:06;;;;;;;4.50;2.77;;;8.10;99.90;;;;;;5085739;28;20202;-80
2022/02/04 16:59:32;;;;;;;3.50;2.50;;;7.70;99.90;;;;;;5084295;28;20450;-80
2022/02/04 17:02:01;;;;;;;4.23;2.23;;;7.90;99.90;;;;;;5087499;28;20457;-79
2022/02/04 17:04:28;;;;;;;2.80;1.93;;;8.00;99.90;;;;;;5085922;28;20445;-80
2022/02/04 17:06:57;;;;;;;2.42;2.10;;;8.10;99.90;;;;;;5084628;28;20471;-79
2022/02/04 17:09:29;;;;;;;2.45;2.25;;;8.10;99.90;;;;;;5084169;28;20226;-79
2022/02/04 17:12:02;;;;;;;3.55;2.92;;;8.40;99.90;;;;;;5082573;28;20191;-80
2022/02/04 17:14:30;;;;;;;4.20;2.42;;;8.10;99.90;;;;;;5087598;28;20206;-81
2022/02/04 17:16:57;;;;;;;4.18;3.20;;;8.10;99.90;;;;;;5092743;28;20216;-81
2022/02/04 17:19:28;;;;;;;3.80;3.00;;;8.10;99.90;;;;;;5090500;28;20198;-81